Time;durP1;ratioP1;P1;durP2;ratioP2;P2;SDS_P1;SDS_P2;PMS_P1;PMS_P2;Temp;Humidity;BMP_temperature;BMP_pressure;BME280_temperature;BME280_humidity;BME280_pressure;Samples;Min_cycle;Max_cycle;Signal;HPM_P1;HPM_P2
2022/11/08 00:03:35;;;;;;;4.63;3.15;;;;;;;8.82;72.04;96733.75;6190520;23;20044;-82
2022/11/08 00:14:31;;;;;;;4.35;3.38;;;;;;;8.85;72.13;96723.00;6189327;23;20457;-81
2022/11/08 00:17:02;;;;;;;5.65;2.90;;;;;;;8.85;72.16;96725.59;6188453;23;20076;-81
2022/11/08 00:19:38;;;;;;;6.97;3.45;;;;;;;8.85;72.15;96718.63;6188790;23;20017;-81
2022/11/08 00:22:12;;;;;;;3.92;3.40;;;;;;;8.85;71.72;96717.78;6189736;23;20021;-80
2022/11/08 00:24:54;;;;;;;9.98;4.35;;;;;;;8.81;71.77;96713.91;6189846;23;20044;-81
2022/11/08 00:27:28;;;;;;;6.32;3.45;;;;;;;8.78;71.94;96707.25;6191481;23;20021;-81
2022/11/08 00:29:58;;;;;;;5.47;3.70;;;;;;;8.79;72.04;96715.84;6191376;23;20054;-81
2022/11/08 00:32:29;;;;;;;7.18;4.10;;;;;;;8.79;72.12;96714.09;6191234;23;20017;-81
2022/11/08 00:34:58;;;;;;;5.50;3.50;;;;;;;8.79;72.06;96713.25;6191451;23;20465;-81
2022/11/08 00:37:30;;;;;;;4.73;3.47;;;;;;;8.79;71.92;96705.47;6191720;23;20025;-81
2022/11/08 00:40:06;;;;;;;5.03;3.45;;;;;;;8.78;72.24;96714.25;6191864;23;20410;-80
2022/11/08 00:42:36;;;;;;;7.15;3.97;;;;;;;8.76;72.13;96698.00;6192455;23;20036;-81
2022/11/08 00:47:55;;;;;;;5.32;3.60;;;;;;;8.70;72.50;96715.06;6211487;23;20032;-81
2022/11/08 00:50:25;;;;;;;6.75;3.45;;;;;;;8.72;72.53;96712.31;6198233;23;20017;-81
2022/11/08 00:52:55;;;;;;;4.93;3.95;;;;;;;8.75;72.42;96705.00;6193296;23;20040;-81
2022/11/08 00:55:27;;;;;;;5.07;4.03;;;;;;;8.74;72.38;96700.75;6193590;23;20021;-80
2022/11/08 00:57:56;;;;;;;8.38;3.90;;;;;;;8.74;72.34;96697.34;6193341;23;20074;-81
2022/11/08 01:00:28;;;;;;;6.35;4.15;;;;;;;8.73;72.67;96699.16;6192362;23;20020;-80
2022/11/08 01:05:39;;;;;;;6.85;5.00;;;;;;;8.76;72.76;96700.59;6192820;23;20027;-81
2022/11/08 01:08:09;;;;;;;8.35;5.15;;;;;;;8.80;72.75;96699.28;6194296;23;20017;-82
2022/11/08 01:10:42;;;;;;;5.53;4.75;;;;;;;8.83;72.80;96704.16;6194339;23;20021;-82
2022/11/08 01:13:12;;;;;;;8.00;5.00;;;;;;;8.83;72.66;96702.38;6193199;23;20023;-81
2022/11/08 01:15:44;;;;;;;8.25;5.13;;;;;;;8.81;72.54;96691.31;6192770;23;20021;-81
2022/11/08 01:18:16;;;;;;;6.75;4.82;;;;;;;8.83;72.63;96702.38;6192932;23;20059;-82
2022/11/08 01:20:48;;;;;;;7.32;5.85;;;;;;;8.82;72.36;96694.72;6193265;23;20066;-81
2022/11/08 01:23:37;;;;;;;8.70;6.30;;;;;;;8.78;72.70;96699.44;6192617;23;20017;-81
2022/11/08 01:26:13;;;;;;;8.48;6.15;;;;;;;8.75;72.69;96696.41;6193743;23;20080;-80
2022/11/08 01:28:42;;;;;;;9.20;6.05;;;;;;;8.71;72.89;96689.91;6193387;23;20021;-81
2022/11/08 01:31:16;;;;;;;10.02;6.10;;;;;;;8.70;73.05;96690.88;6193619;23;20100;-81
2022/11/08 01:33:46;;;;;;;9.98;6.53;;;;;;;8.70;73.23;96683.06;6194023;23;20382;-81
2022/11/08 01:36:22;;;;;;;8.52;6.65;;;;;;;8.72;73.35;96686.31;6193161;23;20052;-81
2022/11/08 01:38:52;;;;;;;7.28;5.93;;;;;;;8.72;73.08;96681.09;6193520;23;20020;-81
2022/11/08 01:41:26;;;;;;;8.65;6.05;;;;;;;8.71;73.18;96684.69;6193303;23;20389;-81
2022/11/08 01:43:58;;;;;;;7.32;5.88;;;;;;;8.69;73.19;96682.25;6194544;23;20017;-81
2022/11/08 01:46:46;;;;;;;10.40;5.60;;;;;;;8.69;73.29;96678.84;6193956;23;20356;-81
2022/11/08 01:49:45;;;;;;;8.63;6.95;;;;;;;8.69;73.41;96671.06;6193392;23;20021;-81
2022/11/08 01:52:25;;;;;;;8.80;6.38;;;;;;;8.68;73.17;96659.84;6189823;23;20489;-81
2022/11/08 01:55:09;;;;;;;9.05;6.30;;;;;;;8.66;72.64;96656.59;6192084;23;20021;-81
2022/11/08 01:57:46;;;;;;;10.98;7.07;;;;;;;8.62;72.93;96650.91;6193272;23;20076;-81
2022/11/08 02:00:16;;;;;;;8.90;6.90;;;;;;;8.62;72.93;96650.91;6192950;23;20072;-81
2022/11/08 02:02:51;;;;;;;10.32;7.50;;;;;;;8.60;72.89;96641.66;6193484;23;20021;-81
2022/11/08 02:05:27;;;;;;;10.95;7.13;;;;;;;8.61;73.12;96651.88;6193473;23;20017;-81
2022/11/08 02:08:01;;;;;;;8.98;7.57;;;;;;;8.64;73.10;96645.56;6192576;23;20053;-81
2022/11/08 02:10:36;;;;;;;8.90;6.88;;;;;;;8.63;72.75;96641.31;6193313;23;20017;-81
2022/11/08 02:13:10;;;;;;;10.55;7.22;;;;;;;8.62;73.14;96640.50;6192899;23;20453;-82
2022/11/08 02:15:44;;;;;;;9.95;8.35;;;;;;;8.62;72.76;96640.50;6192927;23;20021;-81
2022/11/08 02:18:15;;;;;;;11.18;7.28;;;;;;;8.62;72.71;96640.50;6192850;23;20027;-81
2022/11/08 02:20:51;;;;;;;9.63;7.50;;;;;;;8.63;72.79;96636.13;6192788;23;20028;-81
2022/11/08 02:23:27;;;;;;;9.98;7.10;;;;;;;8.62;72.58;96643.09;6193577;23;20028;-81
2022/11/08 02:26:00;;;;;;;9.75;7.88;;;;;;;8.63;72.96;96629.13;6193116;23;20017;-81
2022/11/08 02:28:30;;;;;;;9.50;7.80;;;;;;;8.62;72.66;96629.31;6192382;23;20020;-81
2022/11/08 02:31:00;;;;;;;9.30;7.78;;;;;;;8.61;72.94;96625.88;6192244;23;20029;-81
2022/11/08 02:33:31;;;;;;;9.88;8.20;;;;;;;8.63;73.15;96621.31;6192274;23;20029;-81
2022/11/08 02:36:00;;;;;;;10.52;8.68;;;;;;;8.65;73.12;96619.34;6191923;23;20396;-81
2022/11/08 02:38:30;;;;;;;12.35;8.93;;;;;;;8.66;73.25;96620.19;6192148;23;20021;-81
2022/11/08 02:41:01;;;;;;;9.50;7.45;;;;;;;8.65;73.19;96616.75;6192172;23;20096;-81
2022/11/08 02:43:32;;;;;;;11.48;8.45;;;;;;;8.68;73.25;96623.44;6191753;23;20540;-81
2022/11/08 02:46:01;;;;;;;13.40;8.90;;;;;;;8.67;73.01;96616.59;6191995;23;20137;-81
2022/11/08 02:48:34;;;;;;;9.63;8.57;;;;;;;8.66;72.83;96610.59;6191289;23;20041;-81
2022/11/08 02:51:04;;;;;;;11.60;8.30;;;;;;;8.62;72.65;96614.50;6192279;23;20040;-81
2022/11/08 02:53:35;;;;;;;10.23;8.37;;;;;;;8.58;72.46;96608.03;6192496;23;20023;-81
2022/11/08 02:56:07;;;;;;;11.23;8.38;;;;;;;8.53;72.90;96601.72;6192284;23;20017;-80
2022/11/08 02:58:36;;;;;;;11.65;8.93;;;;;;;8.49;72.81;96601.25;6194852;23;20098;-81
2022/11/08 03:01:05;;;;;;;10.77;9.05;;;;;;;8.47;72.96;96605.78;6200777;23;20021;-82
2022/11/08 03:03:34;;;;;;;11.43;8.40;;;;;;;8.48;73.12;96599.59;6201986;23;20033;-81
2022/11/08 03:06:03;;;;;;;11.55;9.80;;;;;;;8.47;73.11;96594.59;6205637;22;20017;-80
2022/11/08 03:08:31;;;;;;;13.70;10.38;;;;;;;8.45;73.05;96595.56;6222403;23;20092;-80
2022/11/08 03:10:59;;;;;;;14.52;10.38;;;;;;;8.44;72.87;96593.94;6222700;23;20356;-80
2022/11/08 03:13:28;;;;;;;15.73;10.88;;;;;;;8.42;72.92;96598.50;6223344;23;20095;-80
2022/11/08 03:15:55;;;;;;;16.95;11.38;;;;;;;8.37;72.67;96594.75;6223322;23;20035;-80
2022/11/08 03:18:23;;;;;;;15.57;10.07;;;;;;;8.33;73.00;96590.84;6222933;23;20025;-80
2022/11/08 03:20:51;;;;;;;14.10;10.77;;;;;;;8.30;72.85;96596.41;6223061;23;20067;-80
2022/11/08 03:23:19;;;;;;;12.13;9.48;;;;;;;8.24;73.03;96590.91;6223396;23;20472;-80
2022/11/08 03:25:47;;;;;;;11.82;9.82;;;;;;;8.19;73.21;96577.56;6223350;23;20083;-80
2022/11/08 03:28:14;;;;;;;11.48;9.35;;;;;;;8.17;73.38;96583.94;6222938;23;20452;-80
2022/11/08 03:30:52;;;;;;;13.18;9.50;;;;;;;8.13;74.18;96588.63;6224673;23;20334;-80
2022/11/08 03:33:20;;;;;;;13.73;9.93;;;;;;;8.12;73.92;96583.63;6229955;23;20208;-80
2022/11/08 03:35:48;;;;;;;12.38;9.52;;;;;;;8.11;74.04;96579.38;6241405;23;20032;-80
2022/11/08 03:38:16;;;;;;;11.25;9.25;;;;;;;8.10;73.91;96581.19;6235522;23;20024;-80
2022/11/08 03:40:45;;;;;;;16.83;9.55;;;;;;;8.10;73.88;96582.97;6226895;23;20025;-80
2022/11/08 03:43:13;;;;;;;12.18;9.15;;;;;;;8.09;73.94;96579.56;6225425;23;20017;-80
2022/11/08 03:45:41;;;;;;;10.90;8.73;;;;;;;8.08;74.02;96575.34;6224972;23;20039;-80
2022/11/08 03:48:10;;;;;;;11.55;8.98;;;;;;;8.07;74.21;96578.94;6223819;23;20013;-80
2022/11/08 03:50:38;;;;;;;11.77;8.90;;;;;;;8.07;74.30;96576.34;6224089;23;20016;-80
2022/11/08 03:53:05;;;;;;;11.00;8.88;;;;;;;8.08;74.34;96572.75;6224919;23;20059;-80
2022/11/08 03:55:33;;;;;;;8.90;8.00;;;;;;;8.08;74.69;96575.34;6224837;23;20035;-80
2022/11/08 03:58:00;;;;;;;10.85;8.00;;;;;;;8.09;74.48;96564.00;6225127;23;20024;-80
2022/11/08 04:00:29;;;;;;;12.73;8.93;;;;;;;8.08;74.31;96570.16;6225749;23;20024;-80
2022/11/08 04:03:02;;;;;;;12.50;9.02;;;;;;;8.10;75.03;96568.19;6226679;23;20023;-81
2022/11/08 04:05:32;;;;;;;11.52;9.30;;;;;;;8.11;74.38;96551.66;6227282;23;20095;-80
2022/11/08 04:08:01;;;;;;;13.93;8.98;;;;;;;8.14;74.28;96572.09;6227046;23;20048;-80
2022/11/08 04:10:28;;;;;;;10.70;8.05;;;;;;;8.17;74.41;96563.94;6226881;23;20333;-80
2022/11/08 04:15:45;;;;;;;8.80;7.60;;;;;;;8.20;73.88;96563.63;6226597;23;20036;-80
2022/11/08 04:21:20;;;;;;;8.93;7.60;;;;;;;8.23;73.93;96558.09;6225874;23;20017;-80
2022/11/08 04:23:49;;;;;;;14.18;8.18;;;;;;;8.24;73.88;96558.88;6225678;23;20397;-80
2022/11/08 04:26:17;;;;;;;12.15;9.30;;;;;;;8.24;73.66;96566.69;6226555;23;20232;-80
2022/11/08 04:28:46;;;;;;;10.38;8.48;;;;;;;8.21;73.51;96564.44;6225411;23;20091;-80
2022/11/08 04:31:15;;;;;;;11.45;8.52;;;;;;;8.19;73.51;96556.78;6225385;23;20527;-80
2022/11/08 04:33:42;;;;;;;12.57;9.35;;;;;;;8.16;73.50;96554.53;6226497;23;20020;-80
2022/11/08 04:36:13;;;;;;;12.88;9.88;;;;;;;8.16;73.70;96554.53;6226983;23;20028;-80
2022/11/08 04:38:41;;;;;;;14.95;10.93;;;;;;;8.16;73.85;96551.94;6226886;23;20024;-80
2022/11/08 04:41:11;;;;;;;15.00;10.15;;;;;;;8.17;73.76;96553.53;6227431;23;20016;-80
2022/11/08 04:43:39;;;;;;;14.02;9.23;;;;;;;8.17;73.68;96550.94;6226546;23;20072;-81
2022/11/08 04:46:09;;;;;;;14.52;10.90;;;;;;;8.17;73.43;96548.34;6227672;23;20025;-80
2022/11/08 04:48:37;;;;;;;14.10;10.52;;;;;;;8.15;73.63;96545.09;6225836;23;20024;-80
2022/11/08 04:51:08;;;;;;;17.83;10.00;;;;;;;8.14;73.35;96546.09;6224557;23;20018;-80
2022/11/08 04:53:37;;;;;;;13.50;9.05;;;;;;;8.13;73.42;96538.47;6224927;23;20072;-80
2022/11/08 04:56:07;;;;;;;11.48;9.60;;;;;;;8.11;73.16;96537.81;6226277;23;20017;-80
2022/11/08 04:58:35;;;;;;;11.80;8.98;;;;;;;8.09;73.34;96537.19;6225472;23;20020;-80
2022/11/08 05:01:05;;;;;;;11.15;9.10;;;;;;;8.07;73.25;96532.16;6226711;23;20024;-80
2022/11/08 05:03:33;;;;;;;11.73;9.00;;;;;;;8.07;73.48;96526.97;6228514;23;20077;-80
2022/11/08 05:06:02;;;;;;;11.30;8.85;;;;;;;8.08;73.12;96528.56;6226120;23;20021;-80
2022/11/08 05:08:30;;;;;;;15.55;9.82;;;;;;;8.07;73.05;96526.97;6224756;23;20017;-80
2022/11/08 05:11:05;;;;;;;11.10;8.85;;;;;;;8.07;73.33;96516.59;6224647;23;20487;-80
2022/11/08 05:13:33;;;;;;;11.75;8.60;;;;;;;8.08;73.22;96517.38;6223921;23;20344;-80
2022/11/08 05:16:02;;;;;;;15.63;10.40;;;;;;;8.07;73.37;96516.59;6228063;22;20020;-80
2022/11/08 05:18:31;;;;;;;13.95;9.82;;;;;;;8.04;73.20;96511.69;6221510;23;20019;-80
2022/11/08 05:23:49;;;;;;;11.88;9.55;;;;;;;8.03;72.97;96510.91;6224319;23;20021;-80
2022/11/08 05:26:19;;;;;;;13.05;9.63;;;;;;;8.00;72.93;96511.25;6223333;23;20425;-81
2022/11/08 05:28:49;;;;;;;;;;;;;;;8.01;73.10;96506.84;6239497;22;20025;-80
2022/11/08 05:31:17;;;;;;;10.98;8.75;;;;;;;7.97;72.95;96508.97;6240672;22;19922;-80
2022/11/08 05:33:45;;;;;;;12.10;8.93;;;;;;;7.97;73.02;96513.34;6238288;22;20056;-80
2022/11/08 05:36:16;;;;;;;11.00;8.32;;;;;;;7.96;73.05;96509.97;6240910;22;20031;-80
2022/11/08 05:38:43;;;;;;;14.90;9.43;;;;;;;7.95;72.70;96504.91;6238624;22;20003;-81
2022/11/08 05:41:14;;;;;;;11.75;8.85;;;;;;;7.94;72.90;96509.31;6230733;23;20021;-81
2022/11/08 05:43:45;;;;;;;10.45;8.60;;;;;;;7.96;72.73;96514.31;6225582;23;20104;-77
2022/11/08 05:46:14;;;;;;;11.98;8.68;;;;;;;7.96;72.67;96514.31;6213724;23;20024;-76
2022/11/08 05:48:42;;;;;;;15.68;10.13;;;;;;;7.97;72.51;96508.97;6213633;23;20107;-77
2022/11/08 05:51:11;;;;;;;10.23;8.25;;;;;;;8.00;72.24;96507.81;6214157;23;20020;-78
2022/11/08 05:53:39;;;;;;;11.88;8.02;;;;;;;8.03;72.30;96510.09;6213929;23;20536;-78
2022/11/08 05:56:07;;;;;;;12.43;7.85;;;;;;;8.06;72.19;96509.75;6214011;23;20021;-77
2022/11/08 05:58:36;;;;;;;8.95;7.80;;;;;;;8.09;72.13;96511.19;6213829;23;20090;-78
2022/11/08 06:01:07;;;;;;;11.27;8.25;;;;;;;8.12;71.97;96498.69;6214554;23;20052;-77
2022/11/08 06:03:35;;;;;;;11.93;7.65;;;;;;;8.13;71.92;96500.28;6215599;23;20028;-78
2022/11/08 06:06:05;;;;;;;12.68;8.68;;;;;;;8.17;71.59;96496.38;5413470;23;18673637;-76
2022/11/08 06:08:33;;;;;;;12.27;8.43;;;;;;;8.19;71.40;96494.44;6215405;23;20021;-76
2022/11/08 06:11:03;;;;;;;12.77;8.73;;;;;;;8.23;71.28;96495.72;6215028;23;20480;-75
2022/11/08 06:13:32;;;;;;;11.73;8.75;;;;;;;8.27;71.17;96492.78;6214294;23;20040;-75
2022/11/08 06:16:00;;;;;;;11.10;8.52;;;;;;;8.31;71.37;96496.66;6215252;23;20028;-75
2022/11/08 06:18:30;;;;;;;14.25;9.00;;;;;;;8.34;71.08;96497.13;6215056;23;20025;-75
2022/11/08 06:20:58;;;;;;;15.20;10.00;;;;;;;8.39;71.42;96504.41;6215134;23;20022;-75
2022/11/08 06:23:25;;;;;;;14.90;10.27;;;;;;;8.42;70.83;96512.72;6226947;23;20028;-75
2022/11/08 06:25:53;;;;;;;15.65;11.45;;;;;;;8.44;70.45;96508.16;6230780;23;20021;-75
2022/11/08 06:28:21;;;;;;;15.15;11.75;;;;;;;8.47;70.64;96508.81;6217101;23;20464;-75
2022/11/08 06:30:50;;;;;;;15.25;13.05;;;;;;;8.49;70.56;96512.06;6216226;23;20029;-76
2022/11/08 06:33:18;;;;;;;15.68;12.25;;;;;;;8.51;70.45;96504.88;6216209;23;20025;-74
2022/11/08 06:35:47;;;;;;;14.10;10.73;;;;;;;8.53;70.15;96505.53;6215003;23;20048;-75
2022/11/08 06:38:15;;;;;;;17.77;13.00;;;;;;;8.57;70.11;96509.38;6214860;23;20021;-75
2022/11/08 06:40:43;;;;;;;14.70;11.05;;;;;;;8.61;70.02;96508.88;6214979;23;20468;-75
2022/11/08 06:43:11;;;;;;;14.32;9.82;;;;;;;8.61;69.75;96516.66;6214815;23;20016;-75
2022/11/08 06:45:46;;;;;;;11.10;8.52;;;;;;;8.62;69.23;96509.69;6215645;23;20028;-75
2022/11/08 06:48:13;;;;;;;13.15;9.57;;;;;;;8.62;69.11;96510.50;6215142;23;20021;-75
2022/11/08 06:50:42;;;;;;;13.45;9.15;;;;;;;8.64;69.20;96505.13;6214412;23;20464;-75
2022/11/08 06:53:13;;;;;;;11.32;8.75;;;;;;;8.65;68.87;96509.34;6214943;23;20365;-75
2022/11/08 06:55:41;;;;;;;11.27;8.55;;;;;;;8.69;69.04;96515.03;6214289;23;20021;-75
2022/11/08 06:58:10;;;;;;;12.18;8.38;;;;;;;8.73;69.00;96505.91;6217299;23;20020;-75
2022/11/08 07:00:38;;;;;;;11.57;8.07;;;;;;;8.78;69.02;96513.97;6217302;23;20452;-76
2022/11/08 07:03:05;;;;;;;12.77;9.02;;;;;;;8.82;68.67;96502.25;6216481;23;20016;-75
2022/11/08 07:05:34;;;;;;;18.13;8.10;;;;;;;8.86;68.31;96508.72;6214448;23;20028;-75
2022/11/08 07:08:03;;;;;;;22.25;9.60;;;;;;;8.91;68.83;96506.41;6214632;23;20020;-75
2022/11/08 07:10:33;;;;;;;11.75;8.40;;;;;;;8.98;68.81;96509.13;6214802;23;20042;-75
2022/11/08 07:13:02;;;;;;;11.93;7.30;;;;;;;9.03;68.26;96506.81;6214295;23;20044;-75
2022/11/08 07:15:30;;;;;;;10.32;8.05;;;;;;;9.06;67.85;96507.28;6214638;23;20021;-75
2022/11/08 07:18:00;;;;;;;13.10;8.32;;;;;;;9.10;67.57;96506.94;6214171;23;20020;-75
2022/11/08 07:20:28;;;;;;;10.25;7.63;;;;;;;9.10;67.38;96499.13;6214559;23;20103;-75
2022/11/08 07:22:56;;;;;;;9.25;6.70;;;;;;;9.14;67.41;96495.19;6214774;23;20104;-75
2022/11/08 07:25:25;;;;;;;9.13;6.88;;;;;;;9.18;67.37;96496.44;6214653;23;20021;-75
2022/11/08 07:27:56;;;;;;;6.90;6.20;;;;;;;9.21;67.20;96494.31;6213771;23;20020;-75
2022/11/08 07:30:24;;;;;;;8.00;6.53;;;;;;;9.27;67.07;96498.00;6214493;23;20035;-75
2022/11/08 07:32:51;;;;;;;9.52;6.75;;;;;;;9.32;67.17;96495.69;6214265;23;20472;-75
2022/11/08 07:35:19;;;;;;;9.25;7.10;;;;;;;9.36;66.77;96507.38;6214166;23;20025;-75
2022/11/08 07:37:47;;;;;;;11.05;7.32;;;;;;;9.40;66.64;96503.44;6213807;23;20026;-75
2022/11/08 07:40:14;;;;;;;8.68;5.82;;;;;;;9.44;66.46;96509.88;6214384;23;20024;-75
2022/11/08 07:42:42;;;;;;;8.32;6.53;;;;;;;9.48;66.18;96512.97;6214399;23;20364;-75
2022/11/08 07:45:31;;;;;;;6.68;5.30;;;;;;;9.53;66.09;96515.03;6213842;23;20074;-75
2022/11/08 07:48:00;;;;;;;6.50;5.85;;;;;;;9.56;65.79;96507.69;6214185;23;20021;-75
2022/11/08 07:50:33;;;;;;;11.13;6.25;;;;;;;9.60;66.00;96513.31;6214516;23;20445;-75
2022/11/08 07:53:01;;;;;;;6.65;5.75;;;;;;;9.64;66.02;96518.03;6214252;23;20476;-75
2022/11/08 07:55:28;;;;;;;10.02;7.13;;;;;;;9.69;65.86;96512.28;6214363;23;20071;-75
2022/11/08 07:58:00;;;;;;;9.15;6.50;;;;;;;9.75;65.58;96510.75;6214102;23;20024;-75
2022/11/08 08:00:27;;;;;;;8.95;6.82;;;;;;;9.78;65.20;96511.19;6214489;23;20027;-74
2022/11/08 08:02:59;;;;;;;9.43;6.63;;;;;;;9.83;64.96;96505.44;6214466;23;20027;-75
2022/11/08 08:05:27;;;;;;;9.93;6.20;;;;;;;9.89;65.18;96500.34;6214183;23;20345;-75
2022/11/08 08:07:57;;;;;;;9.70;5.88;;;;;;;9.95;64.72;96511.84;6213817;23;20066;-75
2022/11/08 08:10:25;;;;;;;8.80;6.32;;;;;;;10.03;65.10;96510.94;6213960;23;20036;-75
2022/11/08 08:12:52;;;;;;;9.38;6.93;;;;;;;10.10;64.92;96507.44;6214558;23;20024;-75
2022/11/08 08:15:20;;;;;;;10.95;8.20;;;;;;;10.16;64.40;96508.50;6214033;23;20031;-75
2022/11/08 08:17:48;;;;;;;14.70;8.25;;;;;;;10.22;64.69;96506.97;6214107;23;20107;-75
2022/11/08 08:20:18;;;;;;;6.43;5.13;;;;;;;10.27;64.49;96508.03;6213874;23;20032;-75
2022/11/08 08:22:46;;;;;;;8.48;6.30;;;;;;;10.31;63.95;96506.72;6214251;23;20020;-75
2022/11/08 08:25:13;;;;;;;11.85;6.75;;;;;;;10.37;63.46;96514.81;6214298;23;20020;-75
2022/11/08 08:27:46;;;;;;;7.85;6.47;;;;;;;10.43;63.24;96503.63;6214212;23;20021;-75
2022/11/08 08:30:14;;;;;;;10.43;7.15;;;;;;;10.54;63.50;96500.56;6214159;23;20024;-75
2022/11/08 08:32:42;;;;;;;9.63;6.30;;;;;;;10.68;63.22;96497.09;6214139;23;20024;-75
2022/11/08 08:35:11;;;;;;;7.25;5.07;;;;;;;10.81;63.13;96493.81;6214254;23;20017;-75
2022/11/08 08:37:40;;;;;;;8.10;5.80;;;;;;;10.97;62.71;96511.03;6214134;23;20457;-75
2022/11/08 08:40:10;;;;;;;7.22;5.80;;;;;;;11.09;62.35;96514.78;6213632;23;20030;-75
2022/11/08 08:42:37;;;;;;;8.25;5.70;;;;;;;11.18;61.85;96507.63;6214283;23;20032;-75
2022/11/08 08:45:06;;;;;;;9.45;6.13;;;;;;;11.26;61.51;96504.06;6213889;23;20027;-75
2022/11/08 08:47:41;;;;;;;8.00;6.15;;;;;;;11.32;61.27;96487.66;6215169;23;20024;-75
2022/11/08 08:50:08;;;;;;;6.63;5.20;;;;;;;11.37;61.21;96490.50;6215218;23;20490;-76
2022/11/08 08:52:36;;;;;;;9.93;5.57;;;;;;;11.42;60.91;96498.59;6216227;23;20020;-75
2022/11/08 08:55:06;;;;;;;8.57;5.55;;;;;;;11.48;60.38;96508.28;6215483;23;20021;-75
2022/11/08 08:57:34;;;;;;;9.45;5.35;;;;;;;11.55;60.56;96497.88;6216054;23;20024;-75
2022/11/08 09:00:01;;;;;;;8.02;4.55;;;;;;;11.64;60.33;96498.53;6215583;23;20021;-75
2022/11/08 09:02:49;;;;;;;6.45;4.75;;;;;;;11.73;60.08;96494.78;6215504;23;20078;-75
2022/11/08 09:05:17;;;;;;;8.85;5.00;;;;;;;11.82;59.94;96492.81;6215552;23;20016;-74
2022/11/08 09:07:45;;;;;;;7.03;5.03;;;;;;;11.90;59.59;96498.72;6215121;23;20107;-75
2022/11/08 09:10:15;;;;;;;10.95;4.88;;;;;;;11.99;59.02;96490.75;6215626;23;20461;-75
2022/11/08 09:12:42;;;;;;;6.88;5.18;;;;;;;12.07;59.24;96490.56;6223736;23;20024;-76
2022/11/08 09:15:10;;;;;;;3.50;3.20;;;;;;;12.15;58.80;96480.75;6224125;23;20072;-76
2022/11/08 09:17:37;;;;;;;3.75;2.97;;;;;;;12.26;58.46;96482.00;6216334;23;20027;-75
2022/11/08 09:20:06;;;;;;;3.95;2.80;;;;;;;12.44;58.15;96478.03;6215732;23;20420;-75
2022/11/08 09:22:34;;;;;;;5.60;3.38;;;;;;;12.70;57.69;96482.56;6215543;23;20020;-74
2022/11/08 09:25:01;;;;;;;7.72;3.40;;;;;;;12.97;56.68;96470.34;6215494;23;20357;-75
2022/11/08 09:27:31;;;;;;;5.47;3.45;;;;;;;13.23;55.75;96487.06;6215482;23;20024;-75
2022/11/08 09:29:58;;;;;;;6.88;4.43;;;;;;;13.41;55.51;96489.94;6215276;23;20020;-75
2022/11/08 09:32:27;;;;;;;7.75;4.00;;;;;;;13.56;54.85;96489.72;6215459;23;20024;-76
2022/11/08 09:35:15;;;;;;;6.38;3.88;;;;;;;13.66;54.50;96487.47;6215049;23;20029;-75
2022/11/08 09:37:43;;;;;;;10.40;4.68;;;;;;;13.77;54.29;96483.44;6215200;23;20132;-74
2022/11/08 09:40:18;;;;;;;13.88;6.38;;;;;;;13.89;53.68;96487.03;6215326;23;20388;-76
2022/11/08 09:42:55;;;;;;;6.45;3.75;;;;;;;14.06;53.02;96482.16;6215436;23;20384;-76
2022/11/08 09:45:27;;;;;;;5.43;2.80;;;;;;;14.32;53.08;96486.53;6214832;23;20487;-76
2022/11/08 09:47:58;;;;;;;4.63;2.63;;;;;;;14.62;52.78;96475.50;6215069;23;20031;-76
2022/11/08 09:50:35;;;;;;;5.75;3.00;;;;;;;14.89;51.69;96470.91;6215277;23;20025;-76
2022/11/08 09:53:18;;;;;;;6.82;3.20;;;;;;;15.11;51.32;96479.25;6214952;23;20016;-75
2022/11/08 09:55:51;;;;;;;5.18;2.92;;;;;;;15.33;50.85;96476.25;6215181;23;20016;-75
2022/11/08 09:58:26;;;;;;;4.60;2.83;;;;;;;15.54;51.05;96481.09;6214350;23;20022;-75
2022/11/08 10:00:54;;;;;;;5.68;2.42;;;;;;;15.76;51.09;96483.38;6215188;23;20026;-76
2022/11/08 10:03:24;;;;;;;3.45;2.40;;;;;;;15.98;49.33;96484.59;6214657;23;20025;-75
2022/11/08 10:06:06;;;;;;;2.67;2.10;;;;;;;16.19;49.15;96482.53;6214936;23;20042;-76
2022/11/08 10:08:41;;;;;;;6.13;2.53;;;;;;;16.42;49.15;96485.31;6214713;23;20023;-76
2022/11/08 10:11:29;;;;;;;5.50;2.13;;;;;;;16.66;48.34;96488.84;6215107;23;20020;-75
2022/11/08 10:14:11;;;;;;;3.10;2.30;;;;;;;16.86;48.07;96483.34;6215226;23;20416;-76
2022/11/08 10:16:46;;;;;;;4.80;2.45;;;;;;;17.03;46.72;96494.03;6215171;23;20020;-76
2022/11/08 10:19:33;;;;;;;5.25;2.10;;;;;;;17.14;45.99;96495.06;6214796;23;20028;-75
2022/11/08 10:22:05;;;;;;;3.15;2.08;;;;;;;17.14;44.93;96492.44;6214548;23;20017;-76
2022/11/08 10:24:35;;;;;;;2.23;1.50;;;;;;;17.13;44.32;96498.75;6214640;23;20291;-76
2022/11/08 10:27:09;;;;;;;5.05;1.73;;;;;;;17.22;45.29;96501.88;6214785;23;20345;-75
2022/11/08 10:29:43;;;;;;;2.55;1.30;;;;;;;17.39;44.72;96510.72;6214699;23;20028;-76
2022/11/08 10:32:15;;;;;;;1.88;1.20;;;;;;;17.59;44.00;96499.84;6214984;23;20024;-75
2022/11/08 10:34:49;;;;;;;3.22;1.20;;;;;;;17.89;41.78;96501.63;6214904;23;20024;-76
2022/11/08 10:37:18;;;;;;;2.50;1.25;;;;;;;18.21;42.09;96503.88;6214798;23;20027;-75
2022/11/08 10:39:53;;;;;;;3.30;1.73;;;;;;;18.57;40.37;96501.97;6214318;23;20403;-76
2022/11/08 10:42:29;;;;;;;3.10;1.23;;;;;;;18.85;39.91;96509.94;6214868;23;20453;-76
2022/11/08 10:44:59;;;;;;;2.83;0.90;;;;;;;18.98;40.07;96503.56;6214777;23;20020;-77
2022/11/08 10:47:29;;;;;;;2.80;0.90;;;;;;;19.04;39.08;96502.56;6214708;23;20016;-76
2022/11/08 10:49:57;;;;;;;1.60;0.85;;;;;;;19.07;38.78;96493.41;6214413;23;20025;-77
2022/11/08 10:52:34;;;;;;;1.27;1.00;;;;;;;19.05;39.04;96482.25;6214713;23;20025;-76
2022/11/08 10:55:06;;;;;;;0.70;0.70;;;;;;;19.00;39.40;96480.31;6214964;23;20086;-77
2022/11/08 10:57:39;;;;;;;1.48;0.70;;;;;;;18.94;40.75;96484.72;6214766;23;20020;-76
2022/11/08 11:00:26;;;;;;;1.38;1.00;;;;;;;18.87;38.71;96481.41;6214379;23;20024;-77
2022/11/08 11:02:55;;;;;;;2.35;0.90;;;;;;;18.83;39.81;96485.56;6215378;23;20039;-76
2022/11/08 11:05:28;;;;;;;3.05;1.10;;;;;;;18.77;38.99;96475.91;6214619;23;20027;-75
2022/11/08 11:08:02;;;;;;;3.47;1.40;;;;;;;18.69;39.56;96471.00;6214014;23;20480;-74
2022/11/08 11:10:31;;;;;;;4.50;1.25;;;;;;;18.60;40.16;96467.13;6214408;23;20023;-75
2022/11/08 11:13:03;;;;;;;4.95;2.63;;;;;;;18.49;41.02;96456.38;6214229;23;20021;-75
2022/11/08 11:15:34;;;;;;;4.95;2.83;;;;;;;18.40;41.75;96454.34;6214367;23;20031;-74
2022/11/08 11:18:02;;;;;;;6.47;3.58;;;;;;;18.29;42.52;96456.00;6213840;23;20484;-74
2022/11/08 11:20:30;;;;;;;5.97;3.00;;;;;;;18.17;42.80;96460.47;6214045;23;20539;-74
2022/11/08 11:23:00;;;;;;;3.72;2.13;;;;;;;18.05;42.78;96468.44;6214404;23;20020;-75
2022/11/08 11:25:27;;;;;;;2.53;2.00;;;;;;;17.95;42.58;96463.75;6214374;23;20408;-74
2022/11/08 11:27:58;;;;;;;2.08;1.70;;;;;;;17.87;42.29;96462.25;6214437;23;20025;-75
2022/11/08 11:30:33;;;;;;;1.92;1.55;;;;;;;17.78;42.60;96458.34;6214664;23;20024;-75
2022/11/08 11:33:04;;;;;;;1.92;1.30;;;;;;;17.71;42.61;96442.63;6214556;23;20385;-74
2022/11/08 11:35:38;;;;;;;3.50;1.67;;;;;;;17.65;42.80;96442.75;6214747;23;20094;-74
2022/11/08 11:38:14;;;;;;;2.80;1.50;;;;;;;17.60;42.88;96443.44;6214100;23;20067;-75
2022/11/08 11:40:46;;;;;;;3.35;1.70;;;;;;;17.57;42.82;96441.25;6214451;23;20047;-74
2022/11/08 11:43:21;;;;;;;2.47;1.70;;;;;;;17.53;43.17;96439.31;6214159;23;20457;-74
2022/11/08 11:45:55;;;;;;;1.60;1.50;;;;;;;17.49;42.85;96444.22;6214164;23;20281;-74
2022/11/08 11:48:28;;;;;;;2.88;1.88;;;;;;;17.43;43.35;96445.16;6214093;23;20024;-75
2022/11/08 11:50:56;;;;;;;1.15;1.05;;;;;;;17.38;43.16;96434.50;6213930;23;20457;-74
2022/11/08 11:53:27;;;;;;;7.93;2.13;;;;;;;17.38;42.74;96432.69;6214399;23;20020;-74
2022/11/08 11:56:18;;;;;;;2.47;1.48;;;;;;;17.66;42.33;96433.78;6214472;23;20082;-74
2022/11/08 11:59:05;;;;;;;5.18;1.80;;;;;;;18.11;41.33;96428.72;6214394;23;20066;-75
2022/11/08 12:01:49;;;;;;;2.53;1.33;;;;;;;18.46;39.84;96429.66;6220221;23;20052;-75
2022/11/08 12:05:02;;;;;;;2.00;1.20;;;;;;;18.39;40.34;96432.44;6217157;23;20456;-75
2022/11/08 12:07:31;;;;;;;1.45;1.17;;;;;;;18.24;40.34;96418.94;6093063;23;20023;-74
2022/11/08 12:10:15;;;;;;;1.65;1.17;;;;;;;18.08;40.59;96420.44;6092900;23;20340;-75
2022/11/08 12:12:56;;;;;;;3.20;1.25;;;;;;;17.97;41.26;96422.06;6172779;23;20482;-74
2022/11/08 12:15:30;;;;;;;2.50;1.67;;;;;;;17.90;41.35;96430.13;6213980;23;20531;-74
2022/11/08 12:18:29;;;;;;;3.05;1.25;;;;;;;17.85;41.32;96423.94;6213981;23;20024;-74